sensor_id;sensor_type;location;lat;lon;timestamp;P1;durP1;ratioP1;P2;durP2;ratioP2
77453;SDS011;66538;53.150;18.160;2024-01-30T00:00:15;95.20;;;34.80;;
77453;SDS011;66538;53.150;18.160;2024-01-30T00:03:02;88.90;;;34.50;;
77453;SDS011;66538;53.150;18.160;2024-01-30T00:05:29;86.30;;;32.70;;
77453;SDS011;66538;53.150;18.160;2024-01-30T00:07:55;57.50;;;24.40;;
77453;SDS011;66538;53.150;18.160;2024-01-30T00:10:22;76.60;;;30.60;;
77453;SDS011;66538;53.150;18.160;2024-01-30T00:12:48;81.90;;;30.40;;
77453;SDS011;66538;53.150;18.160;2024-01-30T00:15:15;69.50;;;27.90;;
77453;SDS011;66538;53.150;18.160;2024-01-30T00:17:42;59.50;;;22.80;;
77453;SDS011;66538;53.150;18.160;2024-01-30T00:20:08;71.00;;;30.30;;
77453;SDS011;66538;53.150;18.160;2024-01-30T00:22:36;53.00;;;17.80;;
77453;SDS011;66538;53.150;18.160;2024-01-30T00:25:02;57.20;;;21.80;;
77453;SDS011;66538;53.150;18.160;2024-01-30T00:27:29;53.20;;;19.90;;
77453;SDS011;66538;53.150;18.160;2024-01-30T00:29:56;67.50;;;25.70;;
77453;SDS011;66538;53.150;18.160;2024-01-30T00:32:22;52.10;;;20.70;;
77453;SDS011;66538;53.150;18.160;2024-01-30T00:34:49;80.80;;;31.30;;
77453;SDS011;66538;53.150;18.160;2024-01-30T00:37:16;76.00;;;30.30;;
77453;SDS011;66538;53.150;18.160;2024-01-30T00:39:42;71.70;;;28.90;;
77453;SDS011;66538;53.150;18.160;2024-01-30T00:42:09;74.00;;;27.90;;
77453;SDS011;66538;53.150;18.160;2024-01-30T00:44:36;53.40;;;24.10;;
77453;SDS011;66538;53.150;18.160;2024-01-30T00:47:05;66.00;;;25.40;;
77453;SDS011;66538;53.150;18.160;2024-01-30T00:49:32;47.60;;;18.50;;
77453;SDS011;66538;53.150;18.160;2024-01-30T00:51:59;58.20;;;22.60;;
77453;SDS011;66538;53.150;18.160;2024-01-30T00:54:26;60.70;;;22.70;;
77453;SDS011;66538;53.150;18.160;2024-01-30T00:56:53;55.80;;;21.90;;
77453;SDS011;66538;53.150;18.160;2024-01-30T00:59:19;68.10;;;27.00;;
77453;SDS011;66538;53.150;18.160;2024-01-30T01:01:46;40.10;;;17.60;;
77453;SDS011;66538;53.150;18.160;2024-01-30T01:04:13;58.00;;;23.20;;
77453;SDS011;66538;53.150;18.160;2024-01-30T01:06:40;45.80;;;19.90;;
77453;SDS011;66538;53.150;18.160;2024-01-30T01:09:09;56.50;;;20.70;;
77453;SDS011;66538;53.150;18.160;2024-01-30T01:11:37;41.60;;;18.60;;
77453;SDS011;66538;53.150;18.160;2024-01-30T01:14:04;40.50;;;19.60;;
77453;SDS011;66538;53.150;18.160;2024-01-30T01:16:31;45.40;;;19.30;;
77453;SDS011;66538;53.150;18.160;2024-01-30T01:18:59;41.60;;;18.40;;
77453;SDS011;66538;53.150;18.160;2024-01-30T01:21:26;44.20;;;18.40;;
77453;SDS011;66538;53.150;18.160;2024-01-30T01:23:53;36.60;;;14.80;;
77453;SDS011;66538;53.150;18.160;2024-01-30T01:26:20;43.70;;;17.40;;
77453;SDS011;66538;53.150;18.160;2024-01-30T01:28:47;33.40;;;16.50;;
77453;SDS011;66538;53.150;18.160;2024-01-30T01:31:14;47.50;;;19.60;;
77453;SDS011;66538;53.150;18.160;2024-01-30T01:33:41;39.90;;;17.30;;
77453;SDS011;66538;53.150;18.160;2024-01-30T01:36:08;42.60;;;17.90;;
77453;SDS011;66538;53.150;18.160;2024-01-30T01:38:34;34.10;;;15.80;;
77453;SDS011;66538;53.150;18.160;2024-01-30T01:41:01;41.00;;;18.90;;
77453;SDS011;66538;53.150;18.160;2024-01-30T01:43:27;37.20;;;17.80;;
77453;SDS011;66538;53.150;18.160;2024-01-30T01:45:54;41.10;;;17.20;;
77453;SDS011;66538;53.150;18.160;2024-01-30T01:48:20;45.40;;;18.40;;
77453;SDS011;66538;53.150;18.160;2024-01-30T01:50:47;39.70;;;18.60;;
77453;SDS011;66538;53.150;18.160;2024-01-30T01:53:14;36.90;;;17.60;;
77453;SDS011;66538;53.150;18.160;2024-01-30T01:55:42;36.10;;;17.70;;
77453;SDS011;66538;53.150;18.160;2024-01-30T01:58:09;48.10;;;18.40;;
77453;SDS011;66538;53.150;18.160;2024-01-30T02:00:39;39.30;;;16.90;;
77453;SDS011;66538;53.150;18.160;2024-01-30T02:03:10;37.40;;;15.80;;
77453;SDS011;66538;53.150;18.160;2024-01-30T02:05:40;40.90;;;16.90;;
77453;SDS011;66538;53.150;18.160;2024-01-30T02:08:08;30.70;;;13.20;;
77453;SDS011;66538;53.150;18.160;2024-01-30T02:10:35;41.60;;;19.20;;
77453;SDS011;66538;53.150;18.160;2024-01-30T02:13:02;32.90;;;15.30;;
77453;SDS011;66538;53.150;18.160;2024-01-30T02:15:29;44.00;;;20.20;;
77453;SDS011;66538;53.150;18.160;2024-01-30T02:17:55;40.20;;;17.80;;
77453;SDS011;66538;53.150;18.160;2024-01-30T02:20:23;36.50;;;16.50;;
77453;SDS011;66538;53.150;18.160;2024-01-30T02:22:52;27.00;;;12.30;;
77453;SDS011;66538;53.150;18.160;2024-01-30T02:27:47;44.20;;;18.00;;
77453;SDS011;66538;53.150;18.160;2024-01-30T02:30:13;49.90;;;21.30;;
77453;SDS011;66538;53.150;18.160;2024-01-30T02:32:40;65.70;;;26.40;;
77453;SDS011;66538;53.150;18.160;2024-01-30T02:35:07;51.20;;;22.70;;
77453;SDS011;66538;53.150;18.160;2024-01-30T02:37:33;52.30;;;21.90;;
77453;SDS011;66538;53.150;18.160;2024-01-30T02:40:00;42.40;;;19.20;;
77453;SDS011;66538;53.150;18.160;2024-01-30T02:42:26;50.30;;;20.60;;
77453;SDS011;66538;53.150;18.160;2024-01-30T02:44:53;51.30;;;24.30;;
77453;SDS011;66538;53.150;18.160;2024-01-30T02:47:19;46.20;;;20.50;;
77453;SDS011;66538;53.150;18.160;2024-01-30T02:49:46;45.20;;;20.50;;
77453;SDS011;66538;53.150;18.160;2024-01-30T02:52:13;46.90;;;18.90;;
77453;SDS011;66538;53.150;18.160;2024-01-30T02:54:39;47.50;;;20.90;;
77453;SDS011;66538;53.150;18.160;2024-01-30T02:57:06;44.80;;;18.40;;
77453;SDS011;66538;53.150;18.160;2024-01-30T02:59:32;51.50;;;22.10;;
77453;SDS011;66538;53.150;18.160;2024-01-30T03:04:28;33.60;;;14.30;;
77453;SDS011;66538;53.150;18.160;2024-01-30T03:06:56;48.80;;;20.50;;
77453;SDS011;66538;53.150;18.160;2024-01-30T03:09:22;46.80;;;21.10;;
77453;SDS011;66538;53.150;18.160;2024-01-30T03:11:49;47.40;;;23.20;;
77453;SDS011;66538;53.150;18.160;2024-01-30T03:14:16;43.00;;;19.30;;
77453;SDS011;66538;53.150;18.160;2024-01-30T03:16:42;49.10;;;21.30;;
77453;SDS011;66538;53.150;18.160;2024-01-30T03:19:09;54.80;;;23.90;;
77453;SDS011;66538;53.150;18.160;2024-01-30T03:21:35;51.90;;;21.90;;
77453;SDS011;66538;53.150;18.160;2024-01-30T03:24:02;53.20;;;22.90;;
77453;SDS011;66538;53.150;18.160;2024-01-30T03:26:29;47.80;;;19.90;;
77453;SDS011;66538;53.150;18.160;2024-01-30T03:28:56;42.70;;;16.80;;
77453;SDS011;66538;53.150;18.160;2024-01-30T03:31:22;45.60;;;21.40;;
77453;SDS011;66538;53.150;18.160;2024-01-30T03:33:49;49.90;;;22.80;;
77453;SDS011;66538;53.150;18.160;2024-01-30T03:36:15;52.20;;;23.10;;
77453;SDS011;66538;53.150;18.160;2024-01-30T03:38:42;57.50;;;23.30;;
77453;SDS011;66538;53.150;18.160;2024-01-30T03:41:09;53.70;;;22.90;;
77453;SDS011;66538;53.150;18.160;2024-01-30T03:43:36;47.50;;;21.60;;
77453;SDS011;66538;53.150;18.160;2024-01-30T03:46:03;41.90;;;19.30;;
77453;SDS011;66538;53.150;18.160;2024-01-30T03:48:30;40.30;;;19.10;;
77453;SDS011;66538;53.150;18.160;2024-01-30T03:50:56;45.70;;;20.50;;
77453;SDS011;66538;53.150;18.160;2024-01-30T03:53:23;43.20;;;20.00;;
77453;SDS011;66538;53.150;18.160;2024-01-30T03:55:50;48.40;;;21.20;;
77453;SDS011;66538;53.150;18.160;2024-01-30T03:58:16;39.60;;;19.30;;
77453;SDS011;66538;53.150;18.160;2024-01-30T04:00:43;47.20;;;21.80;;
77453;SDS011;66538;53.150;18.160;2024-01-30T04:03:09;47.60;;;20.50;;
77453;SDS011;66538;53.150;18.160;2024-01-30T04:05:36;47.50;;;19.60;;
77453;SDS011;66538;53.150;18.160;2024-01-30T04:08:03;44.90;;;22.00;;
77453;SDS011;66538;53.150;18.160;2024-01-30T04:10:30;54.00;;;24.90;;
77453;SDS011;66538;53.150;18.160;2024-01-30T04:12:57;62.70;;;23.70;;
77453;SDS011;66538;53.150;18.160;2024-01-30T04:15:23;48.60;;;20.40;;
77453;SDS011;66538;53.150;18.160;2024-01-30T04:17:50;42.40;;;19.70;;
77453;SDS011;66538;53.150;18.160;2024-01-30T04:20:17;45.60;;;19.30;;
77453;SDS011;66538;53.150;18.160;2024-01-30T04:22:43;39.60;;;18.60;;
77453;SDS011;66538;53.150;18.160;2024-01-30T04:25:14;38.60;;;19.40;;
77453;SDS011;66538;53.150;18.160;2024-01-30T04:27:40;46.20;;;22.00;;
77453;SDS011;66538;53.150;18.160;2024-01-30T04:30:07;43.50;;;20.20;;
77453;SDS011;66538;53.150;18.160;2024-01-30T04:32:35;45.90;;;20.60;;
77453;SDS011;66538;53.150;18.160;2024-01-30T04:35:03;43.90;;;20.50;;
77453;SDS011;66538;53.150;18.160;2024-01-30T04:37:30;33.40;;;15.40;;
77453;SDS011;66538;53.150;18.160;2024-01-30T04:39:57;39.00;;;19.80;;
77453;SDS011;66538;53.150;18.160;2024-01-30T04:42:24;40.80;;;19.40;;
77453;SDS011;66538;53.150;18.160;2024-01-30T04:44:50;39.50;;;17.60;;
77453;SDS011;66538;53.150;18.160;2024-01-30T04:47:17;41.00;;;18.30;;
77453;SDS011;66538;53.150;18.160;2024-01-30T04:49:44;34.70;;;16.70;;
77453;SDS011;66538;53.150;18.160;2024-01-30T04:52:10;41.40;;;18.10;;
77453;SDS011;66538;53.150;18.160;2024-01-30T04:54:37;39.30;;;19.70;;
77453;SDS011;66538;53.150;18.160;2024-01-30T04:57:03;38.80;;;19.00;;
77453;SDS011;66538;53.150;18.160;2024-01-30T04:59:35;38.10;;;17.60;;
77453;SDS011;66538;53.150;18.160;2024-01-30T05:02:02;35.30;;;16.70;;
77453;SDS011;66538;53.150;18.160;2024-01-30T05:04:29;30.20;;;14.10;;
77453;SDS011;66538;53.150;18.160;2024-01-30T05:06:56;32.70;;;15.70;;
77453;SDS011;66538;53.150;18.160;2024-01-30T05:09:22;33.50;;;14.40;;
77453;SDS011;66538;53.150;18.160;2024-01-30T05:11:49;35.00;;;16.10;;
77453;SDS011;66538;53.150;18.160;2024-01-30T05:14:15;35.50;;;16.90;;
77453;SDS011;66538;53.150;18.160;2024-01-30T05:16:42;39.70;;;18.30;;
77453;SDS011;66538;53.150;18.160;2024-01-30T05:19:13;37.90;;;17.70;;
77453;SDS011;66538;53.150;18.160;2024-01-30T05:21:40;44.90;;;19.40;;
77453;SDS011;66538;53.150;18.160;2024-01-30T05:24:07;49.80;;;22.30;;
77453;SDS011;66538;53.150;18.160;2024-01-30T05:26:36;30.70;;;15.00;;
77453;SDS011;66538;53.150;18.160;2024-01-30T05:29:02;45.70;;;18.90;;
77453;SDS011;66538;53.150;18.160;2024-01-30T05:31:29;30.50;;;14.10;;
77453;SDS011;66538;53.150;18.160;2024-01-30T05:33:56;69.90;;;29.10;;
77453;SDS011;66538;53.150;18.160;2024-01-30T05:36:23;51.70;;;23.30;;
77453;SDS011;66538;53.150;18.160;2024-01-30T05:38:49;38.10;;;16.50;;
77453;SDS011;66538;53.150;18.160;2024-01-30T05:41:16;49.70;;;22.20;;
77453;SDS011;66538;53.150;18.160;2024-01-30T05:43:42;53.60;;;22.70;;
77453;SDS011;66538;53.150;18.160;2024-01-30T05:46:09;87.60;;;34.30;;
77453;SDS011;66538;53.150;18.160;2024-01-30T05:48:36;64.50;;;25.50;;
77453;SDS011;66538;53.150;18.160;2024-01-30T05:51:02;69.40;;;28.20;;
77453;SDS011;66538;53.150;18.160;2024-01-30T05:53:30;64.00;;;26.00;;
77453;SDS011;66538;53.150;18.160;2024-01-30T05:55:57;73.50;;;28.60;;
77453;SDS011;66538;53.150;18.160;2024-01-30T05:58:23;65.90;;;25.30;;
77453;SDS011;66538;53.150;18.160;2024-01-30T06:00:50;59.90;;;23.60;;
77453;SDS011;66538;53.150;18.160;2024-01-30T06:03:17;85.60;;;28.80;;
77453;SDS011;66538;53.150;18.160;2024-01-30T06:05:43;118.60;;;39.50;;
77453;SDS011;66538;53.150;18.160;2024-01-30T06:08:10;108.30;;;35.60;;
77453;SDS011;66538;53.150;18.160;2024-01-30T06:10:36;147.30;;;42.50;;
77453;SDS011;66538;53.150;18.160;2024-01-30T06:13:03;72.90;;;24.60;;
77453;SDS011;66538;53.150;18.160;2024-01-30T06:15:30;138.40;;;40.80;;
77453;SDS011;66538;53.150;18.160;2024-01-30T06:17:56;81.30;;;29.30;;
77453;SDS011;66538;53.150;18.160;2024-01-30T06:20:23;58.10;;;20.90;;
77453;SDS011;66538;53.150;18.160;2024-01-30T06:22:50;81.60;;;31.70;;
77453;SDS011;66538;53.150;18.160;2024-01-30T06:25:16;81.40;;;30.60;;
77453;SDS011;66538;53.150;18.160;2024-01-30T06:27:43;64.50;;;22.60;;
77453;SDS011;66538;53.150;18.160;2024-01-30T06:30:10;36.00;;;16.30;;
77453;SDS011;66538;53.150;18.160;2024-01-30T06:32:37;41.20;;;18.20;;
77453;SDS011;66538;53.150;18.160;2024-01-30T06:35:04;46.70;;;20.70;;
77453;SDS011;66538;53.150;18.160;2024-01-30T06:37:32;39.80;;;18.20;;
77453;SDS011;66538;53.150;18.160;2024-01-30T06:39:58;47.40;;;20.90;;
77453;SDS011;66538;53.150;18.160;2024-01-30T06:42:25;28.20;;;13.10;;
77453;SDS011;66538;53.150;18.160;2024-01-30T06:44:52;41.70;;;18.80;;
77453;SDS011;66538;53.150;18.160;2024-01-30T06:47:18;48.10;;;22.00;;
77453;SDS011;66538;53.150;18.160;2024-01-30T06:49:45;54.10;;;24.50;;
77453;SDS011;66538;53.150;18.160;2024-01-30T06:52:11;57.80;;;23.60;;
77453;SDS011;66538;53.150;18.160;2024-01-30T06:54:38;41.40;;;17.70;;
77453;SDS011;66538;53.150;18.160;2024-01-30T06:57:06;41.50;;;19.10;;
77453;SDS011;66538;53.150;18.160;2024-01-30T06:59:38;62.80;;;24.70;;
77453;SDS011;66538;53.150;18.160;2024-01-30T07:02:09;67.40;;;26.90;;
77453;SDS011;66538;53.150;18.160;2024-01-30T07:04:37;77.20;;;27.60;;
77453;SDS011;66538;53.150;18.160;2024-01-30T07:07:03;101.00;;;29.00;;
77453;SDS011;66538;53.150;18.160;2024-01-30T07:09:31;148.00;;;47.50;;
77453;SDS011;66538;53.150;18.160;2024-01-30T07:11:58;131.30;;;39.80;;
77453;SDS011;66538;53.150;18.160;2024-01-30T07:14:25;164.00;;;36.20;;
77453;SDS011;66538;53.150;18.160;2024-01-30T07:16:51;110.90;;;35.40;;
77453;SDS011;66538;53.150;18.160;2024-01-30T07:19:18;101.30;;;34.40;;
77453;SDS011;66538;53.150;18.160;2024-01-30T07:21:44;108.20;;;37.20;;
77453;SDS011;66538;53.150;18.160;2024-01-30T07:24:12;99.50;;;34.10;;
77453;SDS011;66538;53.150;18.160;2024-01-30T07:26:38;96.30;;;35.00;;
77453;SDS011;66538;53.150;18.160;2024-01-30T07:29:05;111.30;;;40.30;;
77453;SDS011;66538;53.150;18.160;2024-01-30T07:31:32;80.60;;;31.80;;
77453;SDS011;66538;53.150;18.160;2024-01-30T07:33:58;79.60;;;31.10;;
77453;SDS011;66538;53.150;18.160;2024-01-30T07:36:25;57.10;;;25.10;;
77453;SDS011;66538;53.150;18.160;2024-01-30T07:38:52;48.10;;;21.40;;
77453;SDS011;66538;53.150;18.160;2024-01-30T07:41:20;60.70;;;25.30;;
77453;SDS011;66538;53.150;18.160;2024-01-30T07:43:47;47.80;;;20.90;;
77453;SDS011;66538;53.150;18.160;2024-01-30T07:46:13;49.90;;;22.00;;
77453;SDS011;66538;53.150;18.160;2024-01-30T07:48:40;45.20;;;20.10;;
77453;SDS011;66538;53.150;18.160;2024-01-30T07:51:07;53.20;;;23.50;;
77453;SDS011;66538;53.150;18.160;2024-01-30T07:53:34;47.70;;;21.80;;
77453;SDS011;66538;53.150;18.160;2024-01-30T07:56:00;57.20;;;24.90;;
77453;SDS011;66538;53.150;18.160;2024-01-30T07:58:27;36.50;;;20.00;;
77453;SDS011;66538;53.150;18.160;2024-01-30T08:00:53;47.60;;;22.00;;
77453;SDS011;66538;53.150;18.160;2024-01-30T08:03:20;48.10;;;23.20;;
77453;SDS011;66538;53.150;18.160;2024-01-30T08:05:47;33.30;;;17.10;;
77453;SDS011;66538;53.150;18.160;2024-01-30T08:08:13;36.20;;;18.60;;
77453;SDS011;66538;53.150;18.160;2024-01-30T08:10:40;36.80;;;21.10;;
77453;SDS011;66538;53.150;18.160;2024-01-30T08:13:06;31.90;;;15.90;;
77453;SDS011;66538;53.150;18.160;2024-01-30T08:15:35;36.90;;;18.50;;
77453;SDS011;66538;53.150;18.160;2024-01-30T08:18:01;33.50;;;17.10;;
77453;SDS011;66538;53.150;18.160;2024-01-30T08:20:28;38.90;;;20.00;;
77453;SDS011;66538;53.150;18.160;2024-01-30T08:22:55;39.10;;;19.60;;
77453;SDS011;66538;53.150;18.160;2024-01-30T08:25:22;33.60;;;17.30;;
77453;SDS011;66538;53.150;18.160;2024-01-30T08:27:49;35.90;;;17.50;;
77453;SDS011;66538;53.150;18.160;2024-01-30T08:30:15;35.90;;;19.20;;
77453;SDS011;66538;53.150;18.160;2024-01-30T08:32:42;34.30;;;18.70;;
77453;SDS011;66538;53.150;18.160;2024-01-30T08:35:09;35.50;;;16.40;;
77453;SDS011;66538;53.150;18.160;2024-01-30T08:37:35;28.80;;;15.10;;
77453;SDS011;66538;53.150;18.160;2024-01-30T08:40:02;45.80;;;19.60;;
77453;SDS011;66538;53.150;18.160;2024-01-30T08:42:30;38.20;;;18.40;;
77453;SDS011;66538;53.150;18.160;2024-01-30T08:44:57;41.30;;;20.60;;
77453;SDS011;66538;53.150;18.160;2024-01-30T08:47:24;33.40;;;16.50;;
77453;SDS011;66538;53.150;18.160;2024-01-30T08:49:51;36.90;;;18.70;;
77453;SDS011;66538;53.150;18.160;2024-01-30T08:52:18;27.70;;;14.40;;
77453;SDS011;66538;53.150;18.160;2024-01-30T08:54:44;30.70;;;16.70;;
77453;SDS011;66538;53.150;18.160;2024-01-30T08:57:11;31.70;;;16.50;;
77453;SDS011;66538;53.150;18.160;2024-01-30T08:59:38;44.20;;;22.80;;
77453;SDS011;66538;53.150;18.160;2024-01-30T09:02:05;43.10;;;22.80;;
77453;SDS011;66538;53.150;18.160;2024-01-30T09:04:31;29.60;;;17.20;;
77453;SDS011;66538;53.150;18.160;2024-01-30T09:06:58;42.00;;;21.60;;
77453;SDS011;66538;53.150;18.160;2024-01-30T09:09:24;48.10;;;24.30;;
77453;SDS011;66538;53.150;18.160;2024-01-30T09:11:51;43.60;;;21.50;;
77453;SDS011;66538;53.150;18.160;2024-01-30T09:14:18;33.00;;;19.50;;
77453;SDS011;66538;53.150;18.160;2024-01-30T09:16:44;33.90;;;17.20;;
77453;SDS011;66538;53.150;18.160;2024-01-30T09:19:11;36.90;;;17.90;;
77453;SDS011;66538;53.150;18.160;2024-01-30T09:21:37;31.00;;;16.50;;
77453;SDS011;66538;53.150;18.160;2024-01-30T09:24:04;30.80;;;17.10;;
77453;SDS011;66538;53.150;18.160;2024-01-30T09:26:31;32.90;;;18.00;;
77453;SDS011;66538;53.150;18.160;2024-01-30T09:28:58;39.00;;;20.10;;
77453;SDS011;66538;53.150;18.160;2024-01-30T09:31:24;25.00;;;13.50;;
77453;SDS011;66538;53.150;18.160;2024-01-30T09:33:51;35.20;;;18.80;;
77453;SDS011;66538;53.150;18.160;2024-01-30T09:36:20;32.40;;;17.50;;
77453;SDS011;66538;53.150;18.160;2024-01-30T09:38:46;32.80;;;18.40;;
77453;SDS011;66538;53.150;18.160;2024-01-30T09:41:13;26.40;;;14.60;;
77453;SDS011;66538;53.150;18.160;2024-01-30T09:43:41;34.10;;;17.60;;
77453;SDS011;66538;53.150;18.160;2024-01-30T09:46:14;34.90;;;18.50;;
77453;SDS011;66538;53.150;18.160;2024-01-30T09:48:47;26.20;;;13.60;;
77453;SDS011;66538;53.150;18.160;2024-01-30T09:51:14;30.20;;;15.10;;
77453;SDS011;66538;53.150;18.160;2024-01-30T09:53:42;32.80;;;16.90;;
77453;SDS011;66538;53.150;18.160;2024-01-30T09:56:12;19.30;;;11.50;;
77453;SDS011;66538;53.150;18.160;2024-01-30T09:58:40;25.60;;;14.70;;
77453;SDS011;66538;53.150;18.160;2024-01-30T10:01:08;31.00;;;16.30;;
77453;SDS011;66538;53.150;18.160;2024-01-30T10:03:34;30.90;;;16.50;;
77453;SDS011;66538;53.150;18.160;2024-01-30T10:06:01;27.20;;;14.80;;
77453;SDS011;66538;53.150;18.160;2024-01-30T10:08:28;18.60;;;11.00;;
77453;SDS011;66538;53.150;18.160;2024-01-30T10:10:56;30.20;;;16.00;;
77453;SDS011;66538;53.150;18.160;2024-01-30T10:13:23;26.40;;;13.50;;
77453;SDS011;66538;53.150;18.160;2024-01-30T10:15:49;24.20;;;13.20;;
77453;SDS011;66538;53.150;18.160;2024-01-30T10:18:17;30.50;;;15.90;;
77453;SDS011;66538;53.150;18.160;2024-01-30T10:20:44;25.40;;;14.30;;
77453;SDS011;66538;53.150;18.160;2024-01-30T10:23:11;23.20;;;11.60;;
77453;SDS011;66538;53.150;18.160;2024-01-30T10:25:38;25.50;;;12.00;;
77453;SDS011;66538;53.150;18.160;2024-01-30T10:28:04;26.30;;;14.10;;
77453;SDS011;66538;53.150;18.160;2024-01-30T10:30:31;25.00;;;11.50;;
77453;SDS011;66538;53.150;18.160;2024-01-30T10:32:58;20.80;;;10.50;;
77453;SDS011;66538;53.150;18.160;2024-01-30T10:35:24;22.00;;;10.80;;
77453;SDS011;66538;53.150;18.160;2024-01-30T10:37:51;21.30;;;12.90;;
77453;SDS011;66538;53.150;18.160;2024-01-30T10:40:18;24.00;;;13.50;;
77453;SDS011;66538;53.150;18.160;2024-01-30T10:42:50;18.20;;;10.30;;
77453;SDS011;66538;53.150;18.160;2024-01-30T10:45:22;21.40;;;12.50;;
77453;SDS011;66538;53.150;18.160;2024-01-30T10:47:49;22.80;;;13.10;;
77453;SDS011;66538;53.150;18.160;2024-01-30T10:50:17;17.20;;;10.20;;
77453;SDS011;66538;53.150;18.160;2024-01-30T10:52:44;20.20;;;11.40;;
77453;SDS011;66538;53.150;18.160;2024-01-30T10:55:11;19.70;;;10.30;;
77453;SDS011;66538;53.150;18.160;2024-01-30T10:57:38;22.70;;;12.40;;
77453;SDS011;66538;53.150;18.160;2024-01-30T11:00:08;19.30;;;11.50;;
77453;SDS011;66538;53.150;18.160;2024-01-30T11:02:43;16.60;;;8.50;;
77453;SDS011;66538;53.150;18.160;2024-01-30T11:05:11;18.90;;;9.40;;
77453;SDS011;66538;53.150;18.160;2024-01-30T11:07:39;16.40;;;9.80;;
77453;SDS011;66538;53.150;18.160;2024-01-30T11:10:09;22.30;;;11.20;;
77453;SDS011;66538;53.150;18.160;2024-01-30T11:12:40;16.00;;;9.80;;
77453;SDS011;66538;53.150;18.160;2024-01-30T11:15:12;18.30;;;11.10;;
77453;SDS011;66538;53.150;18.160;2024-01-30T11:17:44;18.50;;;8.90;;
77453;SDS011;66538;53.150;18.160;2024-01-30T11:20:11;17.00;;;9.20;;
77453;SDS011;66538;53.150;18.160;2024-01-30T11:22:42;18.00;;;9.90;;
77453;SDS011;66538;53.150;18.160;2024-01-30T11:25:11;21.20;;;10.20;;
77453;SDS011;66538;53.150;18.160;2024-01-30T11:27:39;20.60;;;11.10;;
77453;SDS011;66538;53.150;18.160;2024-01-30T11:30:06;20.90;;;11.10;;
77453;SDS011;66538;53.150;18.160;2024-01-30T11:32:34;17.60;;;9.40;;
77453;SDS011;66538;53.150;18.160;2024-01-30T11:35:04;15.50;;;8.90;;
77453;SDS011;66538;53.150;18.160;2024-01-30T11:37:32;19.50;;;11.00;;
77453;SDS011;66538;53.150;18.160;2024-01-30T11:40:05;22.40;;;11.30;;
77453;SDS011;66538;53.150;18.160;2024-01-30T11:42:32;17.00;;;9.60;;
77453;SDS011;66538;53.150;18.160;2024-01-30T11:45:00;18.70;;;10.10;;
77453;SDS011;66538;53.150;18.160;2024-01-30T11:47:29;21.10;;;10.30;;
77453;SDS011;66538;53.150;18.160;2024-01-30T11:49:56;18.20;;;10.20;;
77453;SDS011;66538;53.150;18.160;2024-01-30T11:52:23;18.40;;;9.70;;
77453;SDS011;66538;53.150;18.160;2024-01-30T11:54:50;14.50;;;7.70;;
77453;SDS011;66538;53.150;18.160;2024-01-30T11:57:17;18.10;;;9.40;;
77453;SDS011;66538;53.150;18.160;2024-01-30T11:59:43;19.60;;;9.10;;
77453;SDS011;66538;53.150;18.160;2024-01-30T12:02:15;15.70;;;7.60;;
77453;SDS011;66538;53.150;18.160;2024-01-30T12:04:43;14.50;;;8.40;;
77453;SDS011;66538;53.150;18.160;2024-01-30T12:07:10;15.00;;;7.40;;
77453;SDS011;66538;53.150;18.160;2024-01-30T12:09:37;16.20;;;8.80;;
77453;SDS011;66538;53.150;18.160;2024-01-30T12:12:04;16.60;;;8.50;;
77453;SDS011;66538;53.150;18.160;2024-01-30T12:14:31;18.50;;;10.30;;
77453;SDS011;66538;53.150;18.160;2024-01-30T12:16:58;14.30;;;8.00;;
77453;SDS011;66538;53.150;18.160;2024-01-30T12:19:25;19.20;;;9.10;;
77453;SDS011;66538;53.150;18.160;2024-01-30T12:21:53;16.90;;;8.70;;
77453;SDS011;66538;53.150;18.160;2024-01-30T12:24:25;16.80;;;10.10;;
77453;SDS011;66538;53.150;18.160;2024-01-30T12:26:58;16.20;;;8.40;;
77453;SDS011;66538;53.150;18.160;2024-01-30T12:29:25;19.80;;;9.20;;
77453;SDS011;66538;53.150;18.160;2024-01-30T12:31:55;19.20;;;9.50;;
77453;SDS011;66538;53.150;18.160;2024-01-30T12:34:22;16.00;;;9.60;;
77453;SDS011;66538;53.150;18.160;2024-01-30T12:36:51;19.00;;;9.90;;
77453;SDS011;66538;53.150;18.160;2024-01-30T12:39:18;16.70;;;10.70;;
77453;SDS011;66538;53.150;18.160;2024-01-30T12:41:45;14.70;;;8.80;;
77453;SDS011;66538;53.150;18.160;2024-01-30T12:44:13;18.90;;;9.60;;
77453;SDS011;66538;53.150;18.160;2024-01-30T12:46:40;14.90;;;7.50;;
77453;SDS011;66538;53.150;18.160;2024-01-30T12:49:07;14.70;;;8.90;;
77453;SDS011;66538;53.150;18.160;2024-01-30T12:51:34;19.40;;;10.80;;
77453;SDS011;66538;53.150;18.160;2024-01-30T12:54:05;13.30;;;7.40;;
77453;SDS011;66538;53.150;18.160;2024-01-30T12:56:32;15.20;;;8.50;;
77453;SDS011;66538;53.150;18.160;2024-01-30T12:58:59;16.10;;;8.40;;
77453;SDS011;66538;53.150;18.160;2024-01-30T13:01:26;16.30;;;8.90;;
77453;SDS011;66538;53.150;18.160;2024-01-30T13:03:53;19.40;;;10.60;;
77453;SDS011;66538;53.150;18.160;2024-01-30T13:06:19;19.10;;;10.60;;
77453;SDS011;66538;53.150;18.160;2024-01-30T13:08:46;16.50;;;9.90;;
77453;SDS011;66538;53.150;18.160;2024-01-30T13:11:13;16.50;;;9.70;;
77453;SDS011;66538;53.150;18.160;2024-01-30T13:13:39;16.40;;;10.30;;
77453;SDS011;66538;53.150;18.160;2024-01-30T13:16:06;18.30;;;10.20;;
77453;SDS011;66538;53.150;18.160;2024-01-30T13:18:33;17.30;;;10.30;;
77453;SDS011;66538;53.150;18.160;2024-01-30T13:20:59;18.50;;;10.90;;
77453;SDS011;66538;53.150;18.160;2024-01-30T13:23:26;16.00;;;9.40;;
77453;SDS011;66538;53.150;18.160;2024-01-30T13:25:52;21.60;;;11.20;;
77453;SDS011;66538;53.150;18.160;2024-01-30T13:28:20;16.70;;;9.90;;
77453;SDS011;66538;53.150;18.160;2024-01-30T13:30:46;19.10;;;10.50;;
77453;SDS011;66538;53.150;18.160;2024-01-30T13:33:13;19.90;;;10.50;;
77453;SDS011;66538;53.150;18.160;2024-01-30T13:35:40;19.60;;;10.90;;
77453;SDS011;66538;53.150;18.160;2024-01-30T13:38:06;16.30;;;10.90;;
77453;SDS011;66538;53.150;18.160;2024-01-30T13:40:33;20.70;;;11.90;;
77453;SDS011;66538;53.150;18.160;2024-01-30T13:43:00;17.80;;;10.90;;
77453;SDS011;66538;53.150;18.160;2024-01-30T13:45:26;16.50;;;10.90;;
77453;SDS011;66538;53.150;18.160;2024-01-30T13:47:53;19.60;;;12.10;;
77453;SDS011;66538;53.150;18.160;2024-01-30T13:50:20;22.70;;;11.30;;
77453;SDS011;66538;53.150;18.160;2024-01-30T13:52:46;20.40;;;12.30;;
77453;SDS011;66538;53.150;18.160;2024-01-30T13:55:13;19.80;;;11.40;;
77453;SDS011;66538;53.150;18.160;2024-01-30T13:57:40;18.00;;;10.90;;
77453;SDS011;66538;53.150;18.160;2024-01-30T14:00:07;17.20;;;10.10;;
77453;SDS011;66538;53.150;18.160;2024-01-30T14:02:39;19.60;;;10.50;;
77453;SDS011;66538;53.150;18.160;2024-01-30T14:05:05;19.50;;;11.00;;
77453;SDS011;66538;53.150;18.160;2024-01-30T14:07:32;22.70;;;13.80;;
77453;SDS011;66538;53.150;18.160;2024-01-30T14:09:59;19.90;;;10.70;;
77453;SDS011;66538;53.150;18.160;2024-01-30T14:12:25;17.30;;;11.00;;
77453;SDS011;66538;53.150;18.160;2024-01-30T14:14:52;23.30;;;13.50;;